sensor_id;sensor_type;location;lat;lon;timestamp;temperature;humidity
48988;DHT22;34799;51.440;-2.534;2023-08-12T00:00:30;17.90;99.90
48988;DHT22;34799;51.440;-2.534;2023-08-12T00:02:58;17.80;99.90
48988;DHT22;34799;51.440;-2.534;2023-08-12T00:05:25;17.70;99.90
48988;DHT22;34799;51.440;-2.534;2023-08-12T00:07:52;17.80;99.90
48988;DHT22;34799;51.440;-2.534;2023-08-12T00:10:19;17.70;99.90
48988;DHT22;34799;51.440;-2.534;2023-08-12T00:12:46;17.60;99.90
48988;DHT22;34799;51.440;-2.534;2023-08-12T00:15:13;17.60;99.90
48988;DHT22;34799;51.440;-2.534;2023-08-12T00:17:41;17.60;99.90
48988;DHT22;34799;51.440;-2.534;2023-08-12T00:20:09;17.60;99.90
48988;DHT22;34799;51.440;-2.534;2023-08-12T00:22:38;17.60;99.90
48988;DHT22;34799;51.440;-2.534;2023-08-12T00:25:06;17.60;99.90
48988;DHT22;34799;51.440;-2.534;2023-08-12T00:27:33;17.50;99.90
48988;DHT22;34799;51.440;-2.534;2023-08-12T00:30:00;17.40;99.90
48988;DHT22;34799;51.440;-2.534;2023-08-12T00:32:28;17.40;99.90
48988;DHT22;34799;51.440;-2.534;2023-08-12T00:34:56;17.40;99.90
48988;DHT22;34799;51.440;-2.534;2023-08-12T00:37:23;17.30;99.90
48988;DHT22;34799;51.440;-2.534;2023-08-12T00:39:51;17.30;99.90
48988;DHT22;34799;51.440;-2.534;2023-08-12T00:42:19;17.30;99.90
48988;DHT22;34799;51.440;-2.534;2023-08-12T00:44:46;17.30;99.90
48988;DHT22;34799;51.440;-2.534;2023-08-12T00:47:15;17.30;99.90
48988;DHT22;34799;51.440;-2.534;2023-08-12T00:49:43;17.20;99.90
48988;DHT22;34799;51.440;-2.534;2023-08-12T00:52:14;17.20;99.90
48988;DHT22;34799;51.440;-2.534;2023-08-12T00:54:42;17.20;99.90
48988;DHT22;34799;51.440;-2.534;2023-08-12T00:57:09;17.20;99.90
48988;DHT22;34799;51.440;-2.534;2023-08-12T00:59:37;17.20;99.90
48988;DHT22;34799;51.440;-2.534;2023-08-12T01:02:04;17.10;99.90
48988;DHT22;34799;51.440;-2.534;2023-08-12T01:04:32;17.20;99.90
48988;DHT22;34799;51.440;-2.534;2023-08-12T01:06:59;17.10;99.90
48988;DHT22;34799;51.440;-2.534;2023-08-12T01:09:27;17.10;99.90
48988;DHT22;34799;51.440;-2.534;2023-08-12T01:12:07;17.10;99.90
48988;DHT22;34799;51.440;-2.534;2023-08-12T01:14:58;17.20;99.90
48988;DHT22;34799;51.440;-2.534;2023-08-12T01:17:27;17.20;99.90
48988;DHT22;34799;51.440;-2.534;2023-08-12T01:19:56;17.20;99.90
48988;DHT22;34799;51.440;-2.534;2023-08-12T01:22:23;17.20;99.90
48988;DHT22;34799;51.440;-2.534;2023-08-12T01:24:52;17.20;99.90
48988;DHT22;34799;51.440;-2.534;2023-08-12T01:27:19;17.20;99.90
48988;DHT22;34799;51.440;-2.534;2023-08-12T01:29:50;17.20;99.90
48988;DHT22;34799;51.440;-2.534;2023-08-12T01:32:28;17.20;99.90
48988;DHT22;34799;51.440;-2.534;2023-08-12T01:37:35;17.30;99.90
48988;DHT22;34799;51.440;-2.534;2023-08-12T01:40:04;17.30;99.90
48988;DHT22;34799;51.440;-2.534;2023-08-12T01:42:33;17.20;99.90
48988;DHT22;34799;51.440;-2.534;2023-08-12T01:45:01;17.20;99.90
48988;DHT22;34799;51.440;-2.534;2023-08-12T01:47:30;17.10;99.90
48988;DHT22;34799;51.440;-2.534;2023-08-12T01:49:58;17.20;99.90
48988;DHT22;34799;51.440;-2.534;2023-08-12T01:52:27;17.10;99.90
48988;DHT22;34799;51.440;-2.534;2023-08-12T01:54:55;17.10;99.90
48988;DHT22;34799;51.440;-2.534;2023-08-12T01:57:22;17.10;99.90
48988;DHT22;34799;51.440;-2.534;2023-08-12T01:59:51;17.10;99.90
48988;DHT22;34799;51.440;-2.534;2023-08-12T02:02:18;17.10;99.90
48988;DHT22;34799;51.440;-2.534;2023-08-12T02:04:46;17.10;99.90
48988;DHT22;34799;51.440;-2.534;2023-08-12T02:07:13;17.20;99.90
48988;DHT22;34799;51.440;-2.534;2023-08-12T02:09:40;17.20;99.90
48988;DHT22;34799;51.440;-2.534;2023-08-12T02:12:07;17.20;99.90
48988;DHT22;34799;51.440;-2.534;2023-08-12T02:14:34;17.20;99.90
48988;DHT22;34799;51.440;-2.534;2023-08-12T02:17:03;17.10;99.90
48988;DHT22;34799;51.440;-2.534;2023-08-12T02:19:33;17.10;99.90
48988;DHT22;34799;51.440;-2.534;2023-08-12T02:22:01;17.10;99.90
48988;DHT22;34799;51.440;-2.534;2023-08-12T02:24:31;17.10;99.90
48988;DHT22;34799;51.440;-2.534;2023-08-12T02:26:59;17.10;99.90
48988;DHT22;34799;51.440;-2.534;2023-08-12T02:29:26;17.20;99.90
48988;DHT22;34799;51.440;-2.534;2023-08-12T02:31:56;17.20;99.90
48988;DHT22;34799;51.440;-2.534;2023-08-12T02:34:23;17.20;99.90
48988;DHT22;34799;51.440;-2.534;2023-08-12T02:36:51;17.20;99.90
48988;DHT22;34799;51.440;-2.534;2023-08-12T02:39:18;17.10;99.90
48988;DHT22;34799;51.440;-2.534;2023-08-12T02:41:46;17.10;99.90
48988;DHT22;34799;51.440;-2.534;2023-08-12T02:44:14;17.00;99.90
48988;DHT22;34799;51.440;-2.534;2023-08-12T02:46:41;17.10;99.90
48988;DHT22;34799;51.440;-2.534;2023-08-12T02:49:08;17.00;99.90
48988;DHT22;34799;51.440;-2.534;2023-08-12T02:51:35;17.00;99.90
48988;DHT22;34799;51.440;-2.534;2023-08-12T02:54:03;17.00;99.90
48988;DHT22;34799;51.440;-2.534;2023-08-12T02:56:30;17.00;99.90
48988;DHT22;34799;51.440;-2.534;2023-08-12T02:58:58;17.00;99.90
48988;DHT22;34799;51.440;-2.534;2023-08-12T03:01:25;17.00;99.90
48988;DHT22;34799;51.440;-2.534;2023-08-12T03:03:54;17.00;99.90
48988;DHT22;34799;51.440;-2.534;2023-08-12T03:06:21;17.00;99.90
48988;DHT22;34799;51.440;-2.534;2023-08-12T03:08:48;17.10;99.90
48988;DHT22;34799;51.440;-2.534;2023-08-12T03:11:15;17.10;99.90
48988;DHT22;34799;51.440;-2.534;2023-08-12T03:13:43;17.10;99.90
48988;DHT22;34799;51.440;-2.534;2023-08-12T03:16:12;17.10;99.90
48988;DHT22;34799;51.440;-2.534;2023-08-12T03:18:42;17.10;99.90
48988;DHT22;34799;51.440;-2.534;2023-08-12T03:21:10;17.10;99.90
48988;DHT22;34799;51.440;-2.534;2023-08-12T03:23:39;17.10;99.90
48988;DHT22;34799;51.440;-2.534;2023-08-12T03:26:09;17.20;99.90
48988;DHT22;34799;51.440;-2.534;2023-08-12T03:28:36;17.20;99.90
48988;DHT22;34799;51.440;-2.534;2023-08-12T03:31:04;17.20;99.90
48988;DHT22;34799;51.440;-2.534;2023-08-12T03:33:32;17.10;99.90
48988;DHT22;34799;51.440;-2.534;2023-08-12T03:36:01;17.10;99.90
48988;DHT22;34799;51.440;-2.534;2023-08-12T03:38:28;17.00;99.90
48988;DHT22;34799;51.440;-2.534;2023-08-12T03:40:55;17.00;99.90
48988;DHT22;34799;51.440;-2.534;2023-08-12T03:43:23;17.00;99.90
48988;DHT22;34799;51.440;-2.534;2023-08-12T03:45:51;17.00;99.90
48988;DHT22;34799;51.440;-2.534;2023-08-12T03:48:19;17.00;99.90
48988;DHT22;34799;51.440;-2.534;2023-08-12T03:50:46;17.00;99.90
48988;DHT22;34799;51.440;-2.534;2023-08-12T03:53:14;17.00;99.90
48988;DHT22;34799;51.440;-2.534;2023-08-12T03:55:42;16.90;99.90
48988;DHT22;34799;51.440;-2.534;2023-08-12T03:58:10;16.90;99.90
48988;DHT22;34799;51.440;-2.534;2023-08-12T04:00:42;16.90;99.90
48988;DHT22;34799;51.440;-2.534;2023-08-12T04:03:11;16.90;99.90
48988;DHT22;34799;51.440;-2.534;2023-08-12T04:05:50;16.90;99.90
48988;DHT22;34799;51.440;-2.534;2023-08-12T04:08:22;16.90;99.90
48988;DHT22;34799;51.440;-2.534;2023-08-12T04:10:52;16.90;99.90
48988;DHT22;34799;51.440;-2.534;2023-08-12T04:13:19;16.90;99.90
48988;DHT22;34799;51.440;-2.534;2023-08-12T04:15:50;16.90;99.90
48988;DHT22;34799;51.440;-2.534;2023-08-12T04:18:17;16.90;99.90
48988;DHT22;34799;51.440;-2.534;2023-08-12T04:20:46;16.90;99.90
48988;DHT22;34799;51.440;-2.534;2023-08-12T04:23:14;16.90;99.90
48988;DHT22;34799;51.440;-2.534;2023-08-12T04:25:43;16.90;99.90
48988;DHT22;34799;51.440;-2.534;2023-08-12T04:28:13;16.90;99.90
48988;DHT22;34799;51.440;-2.534;2023-08-12T04:30:47;16.90;99.90
48988;DHT22;34799;51.440;-2.534;2023-08-12T04:33:18;16.80;99.90
48988;DHT22;34799;51.440;-2.534;2023-08-12T04:35:47;16.90;99.90
48988;DHT22;34799;51.440;-2.534;2023-08-12T04:38:16;16.90;99.90
48988;DHT22;34799;51.440;-2.534;2023-08-12T04:40:44;16.90;99.90
48988;DHT22;34799;51.440;-2.534;2023-08-12T04:43:12;16.80;99.90
48988;DHT22;34799;51.440;-2.534;2023-08-12T04:45:45;16.90;99.90
48988;DHT22;34799;51.440;-2.534;2023-08-12T04:48:13;16.90;99.90
48988;DHT22;34799;51.440;-2.534;2023-08-12T04:50:42;16.80;99.90
48988;DHT22;34799;51.440;-2.534;2023-08-12T04:53:09;16.80;99.90
48988;DHT22;34799;51.440;-2.534;2023-08-12T04:55:36;16.80;99.90
48988;DHT22;34799;51.440;-2.534;2023-08-12T04:58:05;16.70;99.90
48988;DHT22;34799;51.440;-2.534;2023-08-12T05:00:32;16.70;99.90
48988;DHT22;34799;51.440;-2.534;2023-08-12T05:03:00;16.70;99.90
48988;DHT22;34799;51.440;-2.534;2023-08-12T05:05:27;16.70;99.90
48988;DHT22;34799;51.440;-2.534;2023-08-12T05:07:54;16.70;99.90
48988;DHT22;34799;51.440;-2.534;2023-08-12T05:10:22;16.80;99.90
48988;DHT22;34799;51.440;-2.534;2023-08-12T05:12:50;16.80;99.90
48988;DHT22;34799;51.440;-2.534;2023-08-12T05:15:20;16.70;99.90
48988;DHT22;34799;51.440;-2.534;2023-08-12T05:17:49;16.80;99.90
48988;DHT22;34799;51.440;-2.534;2023-08-12T05:20:20;16.80;99.90
48988;DHT22;34799;51.440;-2.534;2023-08-12T05:22:47;16.80;99.90
48988;DHT22;34799;51.440;-2.534;2023-08-12T05:25:14;16.80;99.90
48988;DHT22;34799;51.440;-2.534;2023-08-12T05:27:41;16.90;99.90
48988;DHT22;34799;51.440;-2.534;2023-08-12T05:30:08;16.90;99.90
48988;DHT22;34799;51.440;-2.534;2023-08-12T05:32:36;16.90;99.90
48988;DHT22;34799;51.440;-2.534;2023-08-12T05:35:03;16.90;99.90
48988;DHT22;34799;51.440;-2.534;2023-08-12T05:37:30;16.90;99.90
48988;DHT22;34799;51.440;-2.534;2023-08-12T05:39:57;17.00;99.90
48988;DHT22;34799;51.440;-2.534;2023-08-12T05:42:24;17.00;99.90
48988;DHT22;34799;51.440;-2.534;2023-08-12T05:44:51;17.10;99.90
48988;DHT22;34799;51.440;-2.534;2023-08-12T05:47:19;17.10;99.90
48988;DHT22;34799;51.440;-2.534;2023-08-12T05:49:46;17.10;99.90
48988;DHT22;34799;51.440;-2.534;2023-08-12T05:52:14;17.20;99.90
48988;DHT22;34799;51.440;-2.534;2023-08-12T05:54:41;17.20;99.90
48988;DHT22;34799;51.440;-2.534;2023-08-12T05:57:09;17.30;99.90
48988;DHT22;34799;51.440;-2.534;2023-08-12T05:59:36;17.30;99.90
48988;DHT22;34799;51.440;-2.534;2023-08-12T06:02:04;17.30;99.90
48988;DHT22;34799;51.440;-2.534;2023-08-12T06:04:31;17.40;99.90
48988;DHT22;34799;51.440;-2.534;2023-08-12T06:06:59;17.40;99.90
48988;DHT22;34799;51.440;-2.534;2023-08-12T06:09:26;17.40;99.90
48988;DHT22;34799;51.440;-2.534;2023-08-12T06:11:54;17.30;99.90
48988;DHT22;34799;51.440;-2.534;2023-08-12T06:14:21;17.40;99.90
48988;DHT22;34799;51.440;-2.534;2023-08-12T06:16:49;17.30;99.90
48988;DHT22;34799;51.440;-2.534;2023-08-12T06:19:16;17.30;99.90
48988;DHT22;34799;51.440;-2.534;2023-08-12T06:21:44;17.40;99.90
48988;DHT22;34799;51.440;-2.534;2023-08-12T06:24:11;17.40;99.90
48988;DHT22;34799;51.440;-2.534;2023-08-12T06:26:38;17.40;99.90
48988;DHT22;34799;51.440;-2.534;2023-08-12T06:29:06;17.40;99.90
48988;DHT22;34799;51.440;-2.534;2023-08-12T06:31:33;17.40;99.90
48988;DHT22;34799;51.440;-2.534;2023-08-12T06:34:01;17.40;99.90
48988;DHT22;34799;51.440;-2.534;2023-08-12T06:36:28;17.50;99.90
48988;DHT22;34799;51.440;-2.534;2023-08-12T06:38:56;17.50;99.90
48988;DHT22;34799;51.440;-2.534;2023-08-12T06:41:23;17.50;99.90
48988;DHT22;34799;51.440;-2.534;2023-08-12T06:43:51;16.90;99.90
48988;DHT22;34799;51.440;-2.534;2023-08-12T06:46:18;17.60;99.90
48988;DHT22;34799;51.440;-2.534;2023-08-12T06:48:46;17.60;99.90
48988;DHT22;34799;51.440;-2.534;2023-08-12T06:51:13;17.60;99.90
48988;DHT22;34799;51.440;-2.534;2023-08-12T06:53:41;17.70;99.90
48988;DHT22;34799;51.440;-2.534;2023-08-12T06:56:08;17.70;99.90
48988;DHT22;34799;51.440;-2.534;2023-08-12T06:58:36;17.70;99.90
48988;DHT22;34799;51.440;-2.534;2023-08-12T07:01:03;17.80;99.90
48988;DHT22;34799;51.440;-2.534;2023-08-12T07:03:30;17.80;99.90
48988;DHT22;34799;51.440;-2.534;2023-08-12T07:05:58;17.90;99.90
48988;DHT22;34799;51.440;-2.534;2023-08-12T07:08:25;17.90;99.90
48988;DHT22;34799;51.440;-2.534;2023-08-12T07:10:53;17.90;99.90
48988;DHT22;34799;51.440;-2.534;2023-08-12T07:13:21;17.90;99.90
48988;DHT22;34799;51.440;-2.534;2023-08-12T07:15:48;17.90;99.90
48988;DHT22;34799;51.440;-2.534;2023-08-12T07:18:15;18.00;99.90
48988;DHT22;34799;51.440;-2.534;2023-08-12T07:20:43;18.00;99.90
48988;DHT22;34799;51.440;-2.534;2023-08-12T07:23:10;18.10;99.90
48988;DHT22;34799;51.440;-2.534;2023-08-12T07:25:38;18.20;99.90
48988;DHT22;34799;51.440;-2.534;2023-08-12T07:28:05;18.30;99.90
48988;DHT22;34799;51.440;-2.534;2023-08-12T07:30:34;18.40;99.90
48988;DHT22;34799;51.440;-2.534;2023-08-12T07:33:03;18.40;99.90
48988;DHT22;34799;51.440;-2.534;2023-08-12T07:35:30;18.50;99.90
48988;DHT22;34799;51.440;-2.534;2023-08-12T07:37:58;18.40;99.90
48988;DHT22;34799;51.440;-2.534;2023-08-12T07:40:25;18.50;99.90
48988;DHT22;34799;51.440;-2.534;2023-08-12T07:42:52;18.50;99.90
48988;DHT22;34799;51.440;-2.534;2023-08-12T07:45:19;18.70;99.90
48988;DHT22;34799;51.440;-2.534;2023-08-12T07:47:46;18.80;99.90
48988;DHT22;34799;51.440;-2.534;2023-08-12T07:50:13;18.80;99.90
48988;DHT22;34799;51.440;-2.534;2023-08-12T07:52:40;19.00;99.90
48988;DHT22;34799;51.440;-2.534;2023-08-12T07:55:08;19.00;99.90
48988;DHT22;34799;51.440;-2.534;2023-08-12T07:57:35;19.00;99.90
48988;DHT22;34799;51.440;-2.534;2023-08-12T08:00:03;20.10;99.90
48988;DHT22;34799;51.440;-2.534;2023-08-12T08:02:31;19.00;99.90
48988;DHT22;34799;51.440;-2.534;2023-08-12T08:04:58;19.10;99.90
48988;DHT22;34799;51.440;-2.534;2023-08-12T08:07:25;19.20;99.90
48988;DHT22;34799;51.440;-2.534;2023-08-12T08:09:52;19.20;99.90
48988;DHT22;34799;51.440;-2.534;2023-08-12T08:12:20;19.30;99.90
48988;DHT22;34799;51.440;-2.534;2023-08-12T08:14:48;19.30;99.90
48988;DHT22;34799;51.440;-2.534;2023-08-12T08:17:15;19.40;99.90
48988;DHT22;34799;51.440;-2.534;2023-08-12T08:19:42;19.50;99.90
48988;DHT22;34799;51.440;-2.534;2023-08-12T08:22:10;19.50;99.90
48988;DHT22;34799;51.440;-2.534;2023-08-12T08:24:38;19.50;99.90
48988;DHT22;34799;51.440;-2.534;2023-08-12T08:27:05;19.50;99.90
48988;DHT22;34799;51.440;-2.534;2023-08-12T08:29:32;19.50;99.90
48988;DHT22;34799;51.440;-2.534;2023-08-12T08:32:00;19.50;99.90
48988;DHT22;34799;51.440;-2.534;2023-08-12T08:34:27;19.50;99.90
48988;DHT22;34799;51.440;-2.534;2023-08-12T08:36:55;19.50;99.90
48988;DHT22;34799;51.440;-2.534;2023-08-12T08:39:22;19.60;99.90
48988;DHT22;34799;51.440;-2.534;2023-08-12T08:41:49;19.60;99.90
48988;DHT22;34799;51.440;-2.534;2023-08-12T08:44:22;19.70;99.90
48988;DHT22;34799;51.440;-2.534;2023-08-12T08:46:52;19.80;99.90
48988;DHT22;34799;51.440;-2.534;2023-08-12T08:49:21;19.90;99.90
48988;DHT22;34799;51.440;-2.534;2023-08-12T08:51:49;20.00;99.90
48988;DHT22;34799;51.440;-2.534;2023-08-12T08:54:18;20.10;99.90
48988;DHT22;34799;51.440;-2.534;2023-08-12T08:56:48;20.10;99.90
48988;DHT22;34799;51.440;-2.534;2023-08-12T08:59:16;20.30;99.90
48988;DHT22;34799;51.440;-2.534;2023-08-12T09:01:44;20.20;99.90
48988;DHT22;34799;51.440;-2.534;2023-08-12T09:04:15;20.10;99.90
48988;DHT22;34799;51.440;-2.534;2023-08-12T09:06:44;20.10;99.90
48988;DHT22;34799;51.440;-2.534;2023-08-12T09:09:14;20.10;99.90
48988;DHT22;34799;51.440;-2.534;2023-08-12T09:11:43;20.10;99.90
48988;DHT22;34799;51.440;-2.534;2023-08-12T09:14:13;20.20;99.90
48988;DHT22;34799;51.440;-2.534;2023-08-12T09:16:42;20.20;99.90
48988;DHT22;34799;51.440;-2.534;2023-08-12T09:19:09;20.20;99.90
48988;DHT22;34799;51.440;-2.534;2023-08-12T09:21:37;20.20;99.90
48988;DHT22;34799;51.440;-2.534;2023-08-12T09:24:04;20.20;99.90
48988;DHT22;34799;51.440;-2.534;2023-08-12T09:26:32;20.20;99.90
48988;DHT22;34799;51.440;-2.534;2023-08-12T09:28:59;20.20;99.90
48988;DHT22;34799;51.440;-2.534;2023-08-12T09:31:29;20.30;99.90
48988;DHT22;34799;51.440;-2.534;2023-08-12T09:34:04;20.40;99.90
48988;DHT22;34799;51.440;-2.534;2023-08-12T09:36:34;20.50;99.90
48988;DHT22;34799;51.440;-2.534;2023-08-12T09:39:06;20.60;99.90
48988;DHT22;34799;51.440;-2.534;2023-08-12T09:41:37;20.70;99.90
48988;DHT22;34799;51.440;-2.534;2023-08-12T09:44:05;20.80;99.90
48988;DHT22;34799;51.440;-2.534;2023-08-12T09:46:33;20.80;99.90
48988;DHT22;34799;51.440;-2.534;2023-08-12T09:49:00;20.90;99.90
48988;DHT22;34799;51.440;-2.534;2023-08-12T09:51:35;20.80;99.90
48988;DHT22;34799;51.440;-2.534;2023-08-12T09:54:02;20.80;99.90
48988;DHT22;34799;51.440;-2.534;2023-08-12T09:56:33;20.90;99.90
48988;DHT22;34799;51.440;-2.534;2023-08-12T09:59:06;21.00;99.90
48988;DHT22;34799;51.440;-2.534;2023-08-12T10:01:37;21.00;99.90
48988;DHT22;34799;51.440;-2.534;2023-08-12T10:04:06;21.00;99.90
48988;DHT22;34799;51.440;-2.534;2023-08-12T10:06:38;21.20;99.90
48988;DHT22;34799;51.440;-2.534;2023-08-12T10:09:06;21.30;99.90
48988;DHT22;34799;51.440;-2.534;2023-08-12T10:11:35;21.40;99.90
48988;DHT22;34799;51.440;-2.534;2023-08-12T10:14:04;21.50;99.90
48988;DHT22;34799;51.440;-2.534;2023-08-12T10:16:31;21.60;99.90
48988;DHT22;34799;51.440;-2.534;2023-08-12T10:18:59;21.60;99.90
48988;DHT22;34799;51.440;-2.534;2023-08-12T10:21:27;21.50;99.90
48988;DHT22;34799;51.440;-2.534;2023-08-12T10:23:57;21.50;99.90
48988;DHT22;34799;51.440;-2.534;2023-08-12T10:26:26;21.40;99.90
48988;DHT22;34799;51.440;-2.534;2023-08-12T10:28:54;21.40;99.90
48988;DHT22;34799;51.440;-2.534;2023-08-12T10:31:21;21.30;99.90
48988;DHT22;34799;51.440;-2.534;2023-08-12T10:33:49;21.40;99.90
48988;DHT22;34799;51.440;-2.534;2023-08-12T10:36:16;21.50;99.90
48988;DHT22;34799;51.440;-2.534;2023-08-12T10:38:46;21.60;99.90
48988;DHT22;34799;51.440;-2.534;2023-08-12T10:44:00;21.80;99.90
48988;DHT22;34799;51.440;-2.534;2023-08-12T10:49:05;21.90;99.90
48988;DHT22;34799;51.440;-2.534;2023-08-12T10:51:41;22.00;99.90
48988;DHT22;34799;51.440;-2.534;2023-08-12T10:59:52;22.40;99.90
48988;DHT22;34799;51.440;-2.534;2023-08-12T11:02:44;22.30;99.90
48988;DHT22;34799;51.440;-2.534;2023-08-12T11:05:12;22.20;99.90
48988;DHT22;34799;51.440;-2.534;2023-08-12T11:07:46;22.10;99.90
48988;DHT22;34799;51.440;-2.534;2023-08-12T11:10:16;22.00;99.90
48988;DHT22;34799;51.440;-2.534;2023-08-12T11:15:30;22.00;99.90
48988;DHT22;34799;51.440;-2.534;2023-08-12T11:17:59;22.30;99.90
48988;DHT22;34799;51.440;-2.534;2023-08-12T11:20:28;22.40;99.90
48988;DHT22;34799;51.440;-2.534;2023-08-12T11:22:58;22.30;99.90
48988;DHT22;34799;51.440;-2.534;2023-08-12T11:25:27;22.20;99.90
48988;DHT22;34799;51.440;-2.534;2023-08-12T11:27:55;21.90;99.90
48988;DHT22;34799;51.440;-2.534;2023-08-12T11:30:24;21.40;99.90
48988;DHT22;34799;51.440;-2.534;2023-08-12T11:32:55;21.00;99.90
48988;DHT22;34799;51.440;-2.534;2023-08-12T11:35:24;20.70;99.90
48988;DHT22;34799;51.440;-2.534;2023-08-12T11:37:56;20.50;99.90
48988;DHT22;34799;51.440;-2.534;2023-08-12T11:40:24;20.30;99.90
48988;DHT22;34799;51.440;-2.534;2023-08-12T11:42:52;20.10;99.90
48988;DHT22;34799;51.440;-2.534;2023-08-12T11:45:25;20.00;99.90
48988;DHT22;34799;51.440;-2.534;2023-08-12T11:47:54;20.20;99.90
48988;DHT22;34799;51.440;-2.534;2023-08-12T11:50:24;20.30;99.90
48988;DHT22;34799;51.440;-2.534;2023-08-12T11:52:57;20.40;99.90
48988;DHT22;34799;51.440;-2.534;2023-08-12T11:55:25;20.60;99.90
48988;DHT22;34799;51.440;-2.534;2023-08-12T11:57:52;20.70;99.90
48988;DHT22;34799;51.440;-2.534;2023-08-12T12:00:19;20.80;99.90
48988;DHT22;34799;51.440;-2.534;2023-08-12T12:02:49;20.90;99.90
48988;DHT22;34799;51.440;-2.534;2023-08-12T12:05:18;20.90;99.90
48988;DHT22;34799;51.440;-2.534;2023-08-12T12:07:49;21.00;99.90
48988;DHT22;34799;51.440;-2.534;2023-08-12T12:12:48;21.10;99.90
48988;DHT22;34799;51.440;-2.534;2023-08-12T12:15:15;21.10;99.90
48988;DHT22;34799;51.440;-2.534;2023-08-12T12:17:45;21.20;99.90
48988;DHT22;34799;51.440;-2.534;2023-08-12T12:20:13;21.40;99.90
48988;DHT22;34799;51.440;-2.534;2023-08-12T12:22:44;21.50;99.90
48988;DHT22;34799;51.440;-2.534;2023-08-12T12:25:13;21.60;99.90
48988;DHT22;34799;51.440;-2.534;2023-08-12T12:27:45;21.70;99.90
48988;DHT22;34799;51.440;-2.534;2023-08-12T12:30:14;21.80;99.90
48988;DHT22;34799;51.440;-2.534;2023-08-12T12:32:42;21.90;99.90
48988;DHT22;34799;51.440;-2.534;2023-08-12T12:35:09;22.10;99.90
48988;DHT22;34799;51.440;-2.534;2023-08-12T12:37:37;22.20;99.90
48988;DHT22;34799;51.440;-2.534;2023-08-12T12:40:05;22.20;99.90
48988;DHT22;34799;51.440;-2.534;2023-08-12T12:42:32;21.40;99.90
48988;DHT22;34799;51.440;-2.534;2023-08-12T12:44:59;22.00;99.90
48988;DHT22;34799;51.440;-2.534;2023-08-12T12:47:27;21.90;99.90
48988;DHT22;34799;51.440;-2.534;2023-08-12T12:49:54;21.80;99.90
48988;DHT22;34799;51.440;-2.534;2023-08-12T12:52:21;21.80;99.90
48988;DHT22;34799;51.440;-2.534;2023-08-12T12:54:49;21.80;99.90
48988;DHT22;34799;51.440;-2.534;2023-08-12T12:57:16;21.70;99.90
48988;DHT22;34799;51.440;-2.534;2023-08-12T12:59:44;21.50;99.90
48988;DHT22;34799;51.440;-2.534;2023-08-12T13:02:11;21.30;99.90
48988;DHT22;34799;51.440;-2.534;2023-08-12T13:04:39;21.00;99.90
48988;DHT22;34799;51.440;-2.534;2023-08-12T13:07:06;20.70;99.90
48988;DHT22;34799;51.440;-2.534;2023-08-12T13:09:34;20.10;99.90
48988;DHT22;34799;51.440;-2.534;2023-08-12T13:12:01;19.80;99.90
48988;DHT22;34799;51.440;-2.534;2023-08-12T13:14:29;19.70;99.90
48988;DHT22;34799;51.440;-2.534;2023-08-12T13:16:57;19.60;99.90
48988;DHT22;34799;51.440;-2.534;2023-08-12T13:19:24;19.60;99.90
48988;DHT22;34799;51.440;-2.534;2023-08-12T13:21:51;19.50;99.90
48988;DHT22;34799;51.440;-2.534;2023-08-12T13:24:18;19.30;99.90
48988;DHT22;34799;51.440;-2.534;2023-08-12T13:26:47;19.00;99.90
48988;DHT22;34799;51.440;-2.534;2023-08-12T13:29:14;19.10;99.90
48988;DHT22;34799;51.440;-2.534;2023-08-12T13:31:41;19.00;99.90
48988;DHT22;34799;51.440;-2.534;2023-08-12T13:34:08;19.20;99.90
48988;DHT22;34799;51.440;-2.534;2023-08-12T13:36:36;19.30;99.90
48988;DHT22;34799;51.440;-2.534;2023-08-12T13:39:03;19.40;99.90
48988;DHT22;34799;51.440;-2.534;2023-08-12T13:41:31;19.50;99.90
48988;DHT22;34799;51.440;-2.534;2023-08-12T13:43:58;19.50;99.90
48988;DHT22;34799;51.440;-2.534;2023-08-12T13:46:26;19.60;99.90
48988;DHT22;34799;51.440;-2.534;2023-08-12T13:48:53;19.80;99.90
48988;DHT22;34799;51.440;-2.534;2023-08-12T13:51:21;20.00;99.90
48988;DHT22;34799;51.440;-2.534;2023-08-12T13:53:48;20.10;99.90
48988;DHT22;34799;51.440;-2.534;2023-08-12T13:56:16;20.10;99.90
48988;DHT22;34799;51.440;-2.534;2023-08-12T13:58:44;20.10;99.90
48988;DHT22;34799;51.440;-2.534;2023-08-12T14:01:11;20.00;99.90
48988;DHT22;34799;51.440;-2.534;2023-08-12T14:03:39;20.10;99.90
48988;DHT22;34799;51.440;-2.534;2023-08-12T14:06:06;20.20;99.90
48988;DHT22;34799;51.440;-2.534;2023-08-12T14:08:33;20.50;99.90
48988;DHT22;34799;51.440;-2.534;2023-08-12T14:11:01;20.70;99.90
48988;DHT22;34799;51.440;-2.534;2023-08-12T14:13:28;21.00;99.90
48988;DHT22;34799;51.440;-2.534;2023-08-12T14:15:56;21.30;99.90
48988;DHT22;34799;51.440;-2.534;2023-08-12T14:18:23;21.50;99.90
48988;DHT22;34799;51.440;-2.534;2023-08-12T14:20:51;21.60;99.90
48988;DHT22;34799;51.440;-2.534;2023-08-12T14:23:18;21.50;99.90
48988;DHT22;34799;51.440;-2.534;2023-08-12T14:25:46;21.30;99.90
48988;DHT22;34799;51.440;-2.534;2023-08-12T14:28:13;21.10;99.90
48988;DHT22;34799;51.440;-2.534;2023-08-12T14:30:41;20.90;99.90
48988;DHT22;34799;51.440;-2.534;2023-08-12T14:33:08;20.80;99.90
48988;DHT22;34799;51.440;-2.534;2023-08-12T14:35:36;20.80;99.90
48988;DHT22;34799;51.440;-2.534;2023-08-12T14:38:03;20.90;99.90
48988;DHT22;34799;51.440;-2.534;2023-08-12T14:40:31;21.00;99.90
48988;DHT22;34799;51.440;-2.534;2023-08-12T14:42:58;21.10;99.90
48988;DHT22;34799;51.440;-2.534;2023-08-12T14:45:26;21.10;99.90
48988;DHT22;34799;51.440;-2.534;2023-08-12T14:47:53;21.10;99.90
48988;DHT22;34799;51.440;-2.534;2023-08-12T14:50:21;21.10;99.90
48988;DHT22;34799;51.440;-2.534;2023-08-12T14:52:48;21.00;99.90
48988;DHT22;34799;51.440;-2.534;2023-08-12T14:55:16;21.00;99.90
48988;DHT22;34799;51.440;-2.534;2023-08-12T14:57:43;20.90;99.90
48988;DHT22;34799;51.440;-2.534;2023-08-12T15:00:11;20.90;99.90
48988;DHT22;34799;51.440;-2.534;2023-08-12T15:02:38;21.00;99.90
48988;DHT22;34799;51.440;-2.534;2023-08-12T15:05:06;21.00;99.90
48988;DHT22;34799;51.440;-2.534;2023-08-12T15:07:34;21.10;99.90
48988;DHT22;34799;51.440;-2.534;2023-08-12T15:10:01;21.20;99.90
48988;DHT22;34799;51.440;-2.534;2023-08-12T15:12:28;21.30;99.90
48988;DHT22;34799;51.440;-2.534;2023-08-12T15:14:56;20.70;99.90
48988;DHT22;34799;51.440;-2.534;2023-08-12T15:17:24;21.20;99.90
48988;DHT22;34799;51.440;-2.534;2023-08-12T15:19:51;21.10;99.90
48988;DHT22;34799;51.440;-2.534;2023-08-12T15:22:18;20.90;99.90
48988;DHT22;34799;51.440;-2.534;2023-08-12T15:24:46;20.80;99.90
48988;DHT22;34799;51.440;-2.534;2023-08-12T15:27:13;20.70;99.90
48988;DHT22;34799;51.440;-2.534;2023-08-12T15:29:41;20.60;99.90
48988;DHT22;34799;51.440;-2.534;2023-08-12T15:32:08;20.60;99.90
48988;DHT22;34799;51.440;-2.534;2023-08-12T15:34:36;20.60;99.90
48988;DHT22;34799;51.440;-2.534;2023-08-12T15:37:03;20.60;99.90
48988;DHT22;34799;51.440;-2.534;2023-08-12T15:39:30;20.70;99.90